sensor_id;sensor_type;location;lat;lon;timestamp;temperature;humidity
20125;DHT22;10223;50.862;4.360;2024-02-26T00:01:15;7.50;99.90
20125;DHT22;10223;50.862;4.360;2024-02-26T00:03:44;7.50;99.90
20125;DHT22;10223;50.862;4.360;2024-02-26T00:06:12;7.50;99.90
20125;DHT22;10223;50.862;4.360;2024-02-26T00:08:39;7.40;99.90
20125;DHT22;10223;50.862;4.360;2024-02-26T00:11:06;7.40;99.90
20125;DHT22;10223;50.862;4.360;2024-02-26T00:13:33;7.50;99.90
20125;DHT22;10223;50.862;4.360;2024-02-26T00:16:00;7.50;99.90
20125;DHT22;10223;50.862;4.360;2024-02-26T00:18:27;7.30;99.90
20125;DHT22;10223;50.862;4.360;2024-02-26T00:20:55;7.30;99.90
20125;DHT22;10223;50.862;4.360;2024-02-26T00:23:22;7.30;99.90
20125;DHT22;10223;50.862;4.360;2024-02-26T00:25:49;7.20;99.90
20125;DHT22;10223;50.862;4.360;2024-02-26T00:28:16;7.20;99.90
20125;DHT22;10223;50.862;4.360;2024-02-26T00:30:45;7.10;99.90
20125;DHT22;10223;50.862;4.360;2024-02-26T00:33:12;7.10;99.90
20125;DHT22;10223;50.862;4.360;2024-02-26T00:35:39;7.10;99.90
20125;DHT22;10223;50.862;4.360;2024-02-26T00:38:07;7.10;99.90
20125;DHT22;10223;50.862;4.360;2024-02-26T00:40:34;7.10;99.90
20125;DHT22;10223;50.862;4.360;2024-02-26T00:43:01;7.10;99.90
20125;DHT22;10223;50.862;4.360;2024-02-26T00:45:28;7.10;99.90
20125;DHT22;10223;50.862;4.360;2024-02-26T00:47:54;7.00;99.90
20125;DHT22;10223;50.862;4.360;2024-02-26T00:50:21;7.10;99.90
20125;DHT22;10223;50.862;4.360;2024-02-26T00:52:48;7.00;99.90
20125;DHT22;10223;50.862;4.360;2024-02-26T00:55:17;7.00;99.90
20125;DHT22;10223;50.862;4.360;2024-02-26T00:57:43;7.00;99.90
20125;DHT22;10223;50.862;4.360;2024-02-26T01:00:11;7.00;99.90
20125;DHT22;10223;50.862;4.360;2024-02-26T01:02:39;7.00;99.90
20125;DHT22;10223;50.862;4.360;2024-02-26T01:05:07;7.00;99.90
20125;DHT22;10223;50.862;4.360;2024-02-26T01:07:35;7.00;99.90
20125;DHT22;10223;50.862;4.360;2024-02-26T01:10:02;7.00;99.90
20125;DHT22;10223;50.862;4.360;2024-02-26T01:12:30;7.00;99.90
20125;DHT22;10223;50.862;4.360;2024-02-26T01:14:57;7.00;99.90
20125;DHT22;10223;50.862;4.360;2024-02-26T01:17:24;7.00;99.90
20125;DHT22;10223;50.862;4.360;2024-02-26T01:19:51;7.10;99.90
20125;DHT22;10223;50.862;4.360;2024-02-26T01:22:19;7.00;99.90
20125;DHT22;10223;50.862;4.360;2024-02-26T01:24:46;7.00;99.90
20125;DHT22;10223;50.862;4.360;2024-02-26T01:27:13;6.90;99.90
20125;DHT22;10223;50.862;4.360;2024-02-26T01:29:42;6.90;99.90
20125;DHT22;10223;50.862;4.360;2024-02-26T01:32:09;6.90;99.90
20125;DHT22;10223;50.862;4.360;2024-02-26T01:34:36;6.80;99.90
20125;DHT22;10223;50.862;4.360;2024-02-26T01:37:03;6.90;99.90
20125;DHT22;10223;50.862;4.360;2024-02-26T01:39:30;6.80;99.90
20125;DHT22;10223;50.862;4.360;2024-02-26T01:41:57;6.80;99.90
20125;DHT22;10223;50.862;4.360;2024-02-26T01:44:25;6.80;99.90
20125;DHT22;10223;50.862;4.360;2024-02-26T01:46:54;6.90;99.90
20125;DHT22;10223;50.862;4.360;2024-02-26T01:49:21;6.90;99.90
20125;DHT22;10223;50.862;4.360;2024-02-26T01:51:48;6.90;99.90
20125;DHT22;10223;50.862;4.360;2024-02-26T01:54:16;6.80;99.90
20125;DHT22;10223;50.862;4.360;2024-02-26T01:56:43;6.90;99.90
20125;DHT22;10223;50.862;4.360;2024-02-26T01:59:10;6.80;99.90
20125;DHT22;10223;50.862;4.360;2024-02-26T02:01:38;6.80;99.90
20125;DHT22;10223;50.862;4.360;2024-02-26T02:04:25;6.80;99.90
20125;DHT22;10223;50.862;4.360;2024-02-26T02:06:52;6.80;99.90
20125;DHT22;10223;50.862;4.360;2024-02-26T02:09:19;6.80;99.90
20125;DHT22;10223;50.862;4.360;2024-02-26T02:11:47;6.80;99.90
20125;DHT22;10223;50.862;4.360;2024-02-26T02:14:14;6.80;99.90
20125;DHT22;10223;50.862;4.360;2024-02-26T02:16:41;6.80;99.90
20125;DHT22;10223;50.862;4.360;2024-02-26T02:19:08;6.80;99.90
20125;DHT22;10223;50.862;4.360;2024-02-26T02:21:36;6.80;99.90
20125;DHT22;10223;50.862;4.360;2024-02-26T02:24:03;6.80;99.90
20125;DHT22;10223;50.862;4.360;2024-02-26T02:26:30;6.70;99.90
20125;DHT22;10223;50.862;4.360;2024-02-26T02:28:59;6.70;99.90
20125;DHT22;10223;50.862;4.360;2024-02-26T02:31:26;6.70;99.90
20125;DHT22;10223;50.862;4.360;2024-02-26T02:33:53;6.70;99.90
20125;DHT22;10223;50.862;4.360;2024-02-26T02:36:20;6.70;99.90
20125;DHT22;10223;50.862;4.360;2024-02-26T02:38:51;6.70;99.90
20125;DHT22;10223;50.862;4.360;2024-02-26T02:41:18;6.70;99.90
20125;DHT22;10223;50.862;4.360;2024-02-26T02:43:45;6.70;99.90
20125;DHT22;10223;50.862;4.360;2024-02-26T02:46:12;6.70;99.90
20125;DHT22;10223;50.862;4.360;2024-02-26T02:48:41;6.60;99.90
20125;DHT22;10223;50.862;4.360;2024-02-26T02:51:08;6.70;99.90
20125;DHT22;10223;50.862;4.360;2024-02-26T02:53:35;6.70;99.90
20125;DHT22;10223;50.862;4.360;2024-02-26T02:56:04;6.70;99.90
20125;DHT22;10223;50.862;4.360;2024-02-26T02:58:31;6.70;99.90
20125;DHT22;10223;50.862;4.360;2024-02-26T03:00:58;6.60;99.90
20125;DHT22;10223;50.862;4.360;2024-02-26T03:03:26;6.60;99.90
20125;DHT22;10223;50.862;4.360;2024-02-26T03:05:54;6.60;99.90
20125;DHT22;10223;50.862;4.360;2024-02-26T03:08:21;6.60;99.90
20125;DHT22;10223;50.862;4.360;2024-02-26T03:10:49;6.70;99.90
20125;DHT22;10223;50.862;4.360;2024-02-26T03:13:17;6.70;99.90
20125;DHT22;10223;50.862;4.360;2024-02-26T03:15:44;6.60;99.90
20125;DHT22;10223;50.862;4.360;2024-02-26T03:18:11;6.60;99.90
20125;DHT22;10223;50.862;4.360;2024-02-26T03:20:38;6.60;99.90
20125;DHT22;10223;50.862;4.360;2024-02-26T03:23:05;6.60;99.90
20125;DHT22;10223;50.862;4.360;2024-02-26T03:25:35;6.60;99.90
20125;DHT22;10223;50.862;4.360;2024-02-26T03:28:02;6.60;99.90
20125;DHT22;10223;50.862;4.360;2024-02-26T03:30:30;6.70;99.90
20125;DHT22;10223;50.862;4.360;2024-02-26T03:32:57;6.70;99.90
20125;DHT22;10223;50.862;4.360;2024-02-26T03:35:26;6.70;99.90
20125;DHT22;10223;50.862;4.360;2024-02-26T03:37:53;6.70;99.90
20125;DHT22;10223;50.862;4.360;2024-02-26T03:40:20;6.60;99.90
20125;DHT22;10223;50.862;4.360;2024-02-26T03:42:47;6.70;99.90
20125;DHT22;10223;50.862;4.360;2024-02-26T03:45:14;6.60;99.90
20125;DHT22;10223;50.862;4.360;2024-02-26T03:47:42;6.60;99.90
20125;DHT22;10223;50.862;4.360;2024-02-26T03:50:09;6.60;99.90
20125;DHT22;10223;50.862;4.360;2024-02-26T03:52:36;6.60;99.90
20125;DHT22;10223;50.862;4.360;2024-02-26T03:55:04;6.60;99.90
20125;DHT22;10223;50.862;4.360;2024-02-26T03:57:31;6.60;99.90
20125;DHT22;10223;50.862;4.360;2024-02-26T03:59:57;6.60;99.90
20125;DHT22;10223;50.862;4.360;2024-02-26T04:02:24;6.60;99.90
20125;DHT22;10223;50.862;4.360;2024-02-26T04:04:54;6.60;99.90
20125;DHT22;10223;50.862;4.360;2024-02-26T04:07:21;6.60;99.90
20125;DHT22;10223;50.862;4.360;2024-02-26T04:09:47;6.70;99.90
20125;DHT22;10223;50.862;4.360;2024-02-26T04:12:14;6.60;99.90
20125;DHT22;10223;50.862;4.360;2024-02-26T04:14:41;6.70;99.90
20125;DHT22;10223;50.862;4.360;2024-02-26T04:17:08;6.60;99.90
20125;DHT22;10223;50.862;4.360;2024-02-26T04:19:36;6.60;99.90
20125;DHT22;10223;50.862;4.360;2024-02-26T04:22:04;6.50;99.90
20125;DHT22;10223;50.862;4.360;2024-02-26T04:24:31;6.50;99.90
20125;DHT22;10223;50.862;4.360;2024-02-26T04:26:58;6.60;99.90
20125;DHT22;10223;50.862;4.360;2024-02-26T04:29:25;6.50;99.90
20125;DHT22;10223;50.862;4.360;2024-02-26T04:31:52;6.50;99.90
20125;DHT22;10223;50.862;4.360;2024-02-26T04:34:19;6.60;99.90
20125;DHT22;10223;50.862;4.360;2024-02-26T04:36:46;6.50;99.90
20125;DHT22;10223;50.862;4.360;2024-02-26T04:39:15;6.50;99.90
20125;DHT22;10223;50.862;4.360;2024-02-26T04:41:42;6.60;99.90
20125;DHT22;10223;50.862;4.360;2024-02-26T04:44:09;6.50;99.90
20125;DHT22;10223;50.862;4.360;2024-02-26T04:46:36;6.50;99.90
20125;DHT22;10223;50.862;4.360;2024-02-26T04:49:02;6.50;99.90
20125;DHT22;10223;50.862;4.360;2024-02-26T04:51:29;6.50;99.90
20125;DHT22;10223;50.862;4.360;2024-02-26T04:53:56;6.50;99.90
20125;DHT22;10223;50.862;4.360;2024-02-26T04:56:25;6.50;99.90
20125;DHT22;10223;50.862;4.360;2024-02-26T04:58:52;6.50;99.90
20125;DHT22;10223;50.862;4.360;2024-02-26T05:01:19;6.50;99.90
20125;DHT22;10223;50.862;4.360;2024-02-26T05:03:46;6.50;99.90
20125;DHT22;10223;50.862;4.360;2024-02-26T05:06:13;6.50;99.90
20125;DHT22;10223;50.862;4.360;2024-02-26T05:08:40;6.40;99.90
20125;DHT22;10223;50.862;4.360;2024-02-26T05:11:09;6.50;99.90
20125;DHT22;10223;50.862;4.360;2024-02-26T05:13:38;6.50;99.90
20125;DHT22;10223;50.862;4.360;2024-02-26T05:16:05;6.40;99.90
20125;DHT22;10223;50.862;4.360;2024-02-26T05:18:32;6.50;99.90
20125;DHT22;10223;50.862;4.360;2024-02-26T05:20:59;6.60;99.90
20125;DHT22;10223;50.862;4.360;2024-02-26T05:23:26;6.50;99.90
20125;DHT22;10223;50.862;4.360;2024-02-26T05:25:53;6.50;99.90
20125;DHT22;10223;50.862;4.360;2024-02-26T05:28:20;6.50;99.90
20125;DHT22;10223;50.862;4.360;2024-02-26T05:30:50;6.40;99.90
20125;DHT22;10223;50.862;4.360;2024-02-26T05:33:17;6.40;99.90
20125;DHT22;10223;50.862;4.360;2024-02-26T05:35:44;6.40;99.90
20125;DHT22;10223;50.862;4.360;2024-02-26T05:38:11;6.60;99.90
20125;DHT22;10223;50.862;4.360;2024-02-26T05:40:38;6.50;99.90
20125;DHT22;10223;50.862;4.360;2024-02-26T05:43:05;6.40;99.90
20125;DHT22;10223;50.862;4.360;2024-02-26T05:45:32;6.40;99.90
20125;DHT22;10223;50.862;4.360;2024-02-26T05:48:01;6.40;99.90
20125;DHT22;10223;50.862;4.360;2024-02-26T05:50:28;6.40;99.90
20125;DHT22;10223;50.862;4.360;2024-02-26T05:52:55;6.30;99.90
20125;DHT22;10223;50.862;4.360;2024-02-26T05:55:22;6.40;99.90
20125;DHT22;10223;50.862;4.360;2024-02-26T05:57:49;6.40;99.90
20125;DHT22;10223;50.862;4.360;2024-02-26T06:00:16;6.40;99.90
20125;DHT22;10223;50.862;4.360;2024-02-26T06:02:44;6.40;99.90
20125;DHT22;10223;50.862;4.360;2024-02-26T06:05:12;6.40;99.90
20125;DHT22;10223;50.862;4.360;2024-02-26T06:07:39;6.40;99.90
20125;DHT22;10223;50.862;4.360;2024-02-26T06:10:07;6.40;99.90
20125;DHT22;10223;50.862;4.360;2024-02-26T06:12:35;6.40;99.90
20125;DHT22;10223;50.862;4.360;2024-02-26T06:15:02;6.50;99.90
20125;DHT22;10223;50.862;4.360;2024-02-26T06:17:29;6.40;99.90
20125;DHT22;10223;50.862;4.360;2024-02-26T06:19:56;6.50;99.90
20125;DHT22;10223;50.862;4.360;2024-02-26T06:22:28;6.40;99.90
20125;DHT22;10223;50.862;4.360;2024-02-26T06:24:55;6.30;99.90
20125;DHT22;10223;50.862;4.360;2024-02-26T06:27:22;6.40;99.90
20125;DHT22;10223;50.862;4.360;2024-02-26T06:29:49;6.40;99.90
20125;DHT22;10223;50.862;4.360;2024-02-26T06:32:16;6.40;99.90
20125;DHT22;10223;50.862;4.360;2024-02-26T06:34:43;6.40;99.90
20125;DHT22;10223;50.862;4.360;2024-02-26T06:37:10;6.40;99.90
20125;DHT22;10223;50.862;4.360;2024-02-26T06:39:38;6.40;99.90
20125;DHT22;10223;50.862;4.360;2024-02-26T06:42:06;6.40;99.90
20125;DHT22;10223;50.862;4.360;2024-02-26T06:44:33;6.40;99.90
20125;DHT22;10223;50.862;4.360;2024-02-26T06:47:00;6.50;99.90
20125;DHT22;10223;50.862;4.360;2024-02-26T06:49:28;6.40;99.90
20125;DHT22;10223;50.862;4.360;2024-02-26T06:51:55;6.40;99.90
20125;DHT22;10223;50.862;4.360;2024-02-26T06:54:22;6.30;99.90
20125;DHT22;10223;50.862;4.360;2024-02-26T06:56:51;6.30;99.90
20125;DHT22;10223;50.862;4.360;2024-02-26T06:59:18;6.30;99.90
20125;DHT22;10223;50.862;4.360;2024-02-26T07:01:45;6.40;99.90
20125;DHT22;10223;50.862;4.360;2024-02-26T07:04:12;6.40;99.90
20125;DHT22;10223;50.862;4.360;2024-02-26T07:06:39;6.30;99.90
20125;DHT22;10223;50.862;4.360;2024-02-26T07:09:07;6.30;99.90
20125;DHT22;10223;50.862;4.360;2024-02-26T07:11:34;6.30;99.90
20125;DHT22;10223;50.862;4.360;2024-02-26T07:14:02;6.30;99.90
20125;DHT22;10223;50.862;4.360;2024-02-26T07:16:29;6.30;99.90
20125;DHT22;10223;50.862;4.360;2024-02-26T07:18:56;6.30;99.90
20125;DHT22;10223;50.862;4.360;2024-02-26T07:21:23;6.40;99.90
20125;DHT22;10223;50.862;4.360;2024-02-26T07:23:50;6.30;99.90
20125;DHT22;10223;50.862;4.360;2024-02-26T07:26:17;6.30;99.90
20125;DHT22;10223;50.862;4.360;2024-02-26T07:28:45;6.30;99.90
20125;DHT22;10223;50.862;4.360;2024-02-26T07:31:13;6.30;99.90
20125;DHT22;10223;50.862;4.360;2024-02-26T07:33:44;6.30;99.90
20125;DHT22;10223;50.862;4.360;2024-02-26T07:36:11;6.40;99.90
20125;DHT22;10223;50.862;4.360;2024-02-26T07:38:38;6.30;99.90
20125;DHT22;10223;50.862;4.360;2024-02-26T07:41:05;6.30;99.90
20125;DHT22;10223;50.862;4.360;2024-02-26T07:43:32;6.30;99.90
20125;DHT22;10223;50.862;4.360;2024-02-26T07:45:59;6.30;99.90
20125;DHT22;10223;50.862;4.360;2024-02-26T07:48:28;6.30;99.90
20125;DHT22;10223;50.862;4.360;2024-02-26T07:50:55;6.30;99.90
20125;DHT22;10223;50.862;4.360;2024-02-26T07:53:22;6.30;99.90
20125;DHT22;10223;50.862;4.360;2024-02-26T07:55:49;6.30;99.90
20125;DHT22;10223;50.862;4.360;2024-02-26T07:58:16;6.30;99.90
20125;DHT22;10223;50.862;4.360;2024-02-26T08:00:43;6.30;99.90
20125;DHT22;10223;50.862;4.360;2024-02-26T08:03:12;6.20;99.90
20125;DHT22;10223;50.862;4.360;2024-02-26T08:05:42;6.20;99.90
20125;DHT22;10223;50.862;4.360;2024-02-26T08:08:09;6.20;99.90
20125;DHT22;10223;50.862;4.360;2024-02-26T08:10:36;6.30;99.90
20125;DHT22;10223;50.862;4.360;2024-02-26T08:13:03;6.20;99.90
20125;DHT22;10223;50.862;4.360;2024-02-26T08:15:31;6.20;99.90
20125;DHT22;10223;50.862;4.360;2024-02-26T08:17:59;6.30;99.90
20125;DHT22;10223;50.862;4.360;2024-02-26T08:20:28;6.20;99.90
20125;DHT22;10223;50.862;4.360;2024-02-26T08:22:56;6.30;99.90
20125;DHT22;10223;50.862;4.360;2024-02-26T08:25:23;6.30;99.90
20125;DHT22;10223;50.862;4.360;2024-02-26T08:27:50;6.20;99.90
20125;DHT22;10223;50.862;4.360;2024-02-26T08:30:17;6.30;99.90
20125;DHT22;10223;50.862;4.360;2024-02-26T08:32:45;6.30;99.90
20125;DHT22;10223;50.862;4.360;2024-02-26T08:35:12;6.30;99.90
20125;DHT22;10223;50.862;4.360;2024-02-26T08:37:39;6.30;99.90
20125;DHT22;10223;50.862;4.360;2024-02-26T08:40:08;6.30;99.90
20125;DHT22;10223;50.862;4.360;2024-02-26T08:42:35;6.30;99.90
20125;DHT22;10223;50.862;4.360;2024-02-26T08:45:02;6.20;99.90
20125;DHT22;10223;50.862;4.360;2024-02-26T08:47:30;6.20;99.90
20125;DHT22;10223;50.862;4.360;2024-02-26T08:49:58;6.30;99.90
20125;DHT22;10223;50.862;4.360;2024-02-26T08:52:25;6.30;99.90
20125;DHT22;10223;50.862;4.360;2024-02-26T08:54:51;6.30;99.90
20125;DHT22;10223;50.862;4.360;2024-02-26T08:57:20;6.30;99.90
20125;DHT22;10223;50.862;4.360;2024-02-26T08:59:47;6.20;99.90
20125;DHT22;10223;50.862;4.360;2024-02-26T09:02:14;6.30;99.90
20125;DHT22;10223;50.862;4.360;2024-02-26T09:04:41;6.30;99.90
20125;DHT22;10223;50.862;4.360;2024-02-26T09:07:07;6.50;99.90
20125;DHT22;10223;50.862;4.360;2024-02-26T09:09:34;6.40;99.90
20125;DHT22;10223;50.862;4.360;2024-02-26T09:12:02;6.30;99.90
20125;DHT22;10223;50.862;4.360;2024-02-26T09:14:30;6.30;99.90
20125;DHT22;10223;50.862;4.360;2024-02-26T09:16:57;6.30;99.90
20125;DHT22;10223;50.862;4.360;2024-02-26T09:19:26;6.40;99.90
20125;DHT22;10223;50.862;4.360;2024-02-26T09:21:54;6.30;99.90
20125;DHT22;10223;50.862;4.360;2024-02-26T09:24:23;6.30;99.90
20125;DHT22;10223;50.862;4.360;2024-02-26T09:26:50;6.40;99.90
20125;DHT22;10223;50.862;4.360;2024-02-26T09:29:17;6.30;99.90
20125;DHT22;10223;50.862;4.360;2024-02-26T09:31:45;6.30;99.90
20125;DHT22;10223;50.862;4.360;2024-02-26T09:34:13;6.30;99.90
20125;DHT22;10223;50.862;4.360;2024-02-26T09:36:40;6.30;99.90
20125;DHT22;10223;50.862;4.360;2024-02-26T09:39:07;6.20;99.90
20125;DHT22;10223;50.862;4.360;2024-02-26T09:41:37;6.20;99.90
20125;DHT22;10223;50.862;4.360;2024-02-26T09:44:06;6.20;99.90
20125;DHT22;10223;50.862;4.360;2024-02-26T09:46:34;6.30;99.90
20125;DHT22;10223;50.862;4.360;2024-02-26T09:49:03;6.10;99.90
20125;DHT22;10223;50.862;4.360;2024-02-26T09:51:31;6.10;99.90
20125;DHT22;10223;50.862;4.360;2024-02-26T09:53:59;6.20;99.90
20125;DHT22;10223;50.862;4.360;2024-02-26T09:56:27;6.20;99.90
20125;DHT22;10223;50.862;4.360;2024-02-26T09:58:56;6.20;99.90
20125;DHT22;10223;50.862;4.360;2024-02-26T10:01:23;6.20;99.90
20125;DHT22;10223;50.862;4.360;2024-02-26T10:03:55;6.10;99.90
20125;DHT22;10223;50.862;4.360;2024-02-26T10:06:24;6.20;99.90
20125;DHT22;10223;50.862;4.360;2024-02-26T10:08:51;6.20;99.90
20125;DHT22;10223;50.862;4.360;2024-02-26T10:11:19;6.20;99.90
20125;DHT22;10223;50.862;4.360;2024-02-26T10:13:47;6.10;99.90
20125;DHT22;10223;50.862;4.360;2024-02-26T10:16:14;6.10;99.90
20125;DHT22;10223;50.862;4.360;2024-02-26T10:18:46;6.10;99.90
20125;DHT22;10223;50.862;4.360;2024-02-26T10:21:13;6.10;99.90
20125;DHT22;10223;50.862;4.360;2024-02-26T10:23:43;6.10;99.90
20125;DHT22;10223;50.862;4.360;2024-02-26T10:26:10;6.20;99.90
20125;DHT22;10223;50.862;4.360;2024-02-26T10:28:39;6.20;99.90
20125;DHT22;10223;50.862;4.360;2024-02-26T10:31:06;6.20;99.90
20125;DHT22;10223;50.862;4.360;2024-02-26T10:33:34;6.20;99.90
20125;DHT22;10223;50.862;4.360;2024-02-26T10:36:02;6.20;99.90
20125;DHT22;10223;50.862;4.360;2024-02-26T10:38:29;6.10;99.90
20125;DHT22;10223;50.862;4.360;2024-02-26T10:40:58;6.10;99.90
20125;DHT22;10223;50.862;4.360;2024-02-26T10:43:25;6.20;99.90
20125;DHT22;10223;50.862;4.360;2024-02-26T10:45:54;6.10;99.90
20125;DHT22;10223;50.862;4.360;2024-02-26T10:48:21;6.10;99.90
20125;DHT22;10223;50.862;4.360;2024-02-26T10:50:49;6.10;99.90
20125;DHT22;10223;50.862;4.360;2024-02-26T10:53:17;6.10;99.90
20125;DHT22;10223;50.862;4.360;2024-02-26T10:55:48;6.20;99.90
20125;DHT22;10223;50.862;4.360;2024-02-26T10:58:17;6.10;99.90
20125;DHT22;10223;50.862;4.360;2024-02-26T11:00:45;6.10;99.90
20125;DHT22;10223;50.862;4.360;2024-02-26T11:03:14;6.10;99.90
20125;DHT22;10223;50.862;4.360;2024-02-26T11:05:41;6.10;99.90
20125;DHT22;10223;50.862;4.360;2024-02-26T11:08:10;6.00;99.90
20125;DHT22;10223;50.862;4.360;2024-02-26T11:10:38;6.00;99.90
20125;DHT22;10223;50.862;4.360;2024-02-26T11:13:10;6.00;99.90
20125;DHT22;10223;50.862;4.360;2024-02-26T11:15:40;6.00;99.90
20125;DHT22;10223;50.862;4.360;2024-02-26T11:18:08;5.90;99.90
20125;DHT22;10223;50.862;4.360;2024-02-26T11:20:38;5.80;99.90
20125;DHT22;10223;50.862;4.360;2024-02-26T11:23:07;5.90;99.90
20125;DHT22;10223;50.862;4.360;2024-02-26T11:25:34;5.80;99.90
20125;DHT22;10223;50.862;4.360;2024-02-26T11:28:04;5.80;99.90
20125;DHT22;10223;50.862;4.360;2024-02-26T11:30:36;5.80;99.90
20125;DHT22;10223;50.862;4.360;2024-02-26T11:33:06;5.80;99.90
20125;DHT22;10223;50.862;4.360;2024-02-26T11:35:35;5.80;99.90
20125;DHT22;10223;50.862;4.360;2024-02-26T11:38:03;5.80;99.90
20125;DHT22;10223;50.862;4.360;2024-02-26T11:40:32;5.80;99.90
20125;DHT22;10223;50.862;4.360;2024-02-26T11:42:59;5.80;99.90
20125;DHT22;10223;50.862;4.360;2024-02-26T11:45:48;5.80;99.90
20125;DHT22;10223;50.862;4.360;2024-02-26T11:48:22;5.80;99.90
20125;DHT22;10223;50.862;4.360;2024-02-26T11:50:51;5.80;99.90
20125;DHT22;10223;50.862;4.360;2024-02-26T11:53:22;5.80;99.90
20125;DHT22;10223;50.862;4.360;2024-02-26T11:56:23;5.80;99.90
20125;DHT22;10223;50.862;4.360;2024-02-26T11:59:00;5.80;99.90
20125;DHT22;10223;50.862;4.360;2024-02-26T12:01:45;5.80;99.90
20125;DHT22;10223;50.862;4.360;2024-02-26T12:04:17;5.80;99.90
20125;DHT22;10223;50.862;4.360;2024-02-26T12:06:55;5.90;99.90
20125;DHT22;10223;50.862;4.360;2024-02-26T12:09:36;5.90;99.90
20125;DHT22;10223;50.862;4.360;2024-02-26T12:12:04;5.80;99.90
20125;DHT22;10223;50.862;4.360;2024-02-26T12:14:33;5.80;99.90
20125;DHT22;10223;50.862;4.360;2024-02-26T12:17:01;5.90;99.90
20125;DHT22;10223;50.862;4.360;2024-02-26T12:19:34;6.00;99.90
20125;DHT22;10223;50.862;4.360;2024-02-26T12:22:01;5.90;99.90
20125;DHT22;10223;50.862;4.360;2024-02-26T12:24:28;5.90;99.90
20125;DHT22;10223;50.862;4.360;2024-02-26T12:26:55;6.00;99.90
20125;DHT22;10223;50.862;4.360;2024-02-26T12:29:23;6.00;99.90
20125;DHT22;10223;50.862;4.360;2024-02-26T12:31:50;6.00;99.90
20125;DHT22;10223;50.862;4.360;2024-02-26T12:34:17;6.00;99.90
20125;DHT22;10223;50.862;4.360;2024-02-26T12:36:46;6.00;99.90
20125;DHT22;10223;50.862;4.360;2024-02-26T12:39:13;6.00;99.90
20125;DHT22;10223;50.862;4.360;2024-02-26T12:41:40;6.00;99.90
20125;DHT22;10223;50.862;4.360;2024-02-26T12:44:11;5.90;99.90
20125;DHT22;10223;50.862;4.360;2024-02-26T12:46:39;5.90;99.90
20125;DHT22;10223;50.862;4.360;2024-02-26T12:49:15;6.10;99.90
20125;DHT22;10223;50.862;4.360;2024-02-26T12:51:42;6.10;99.90
20125;DHT22;10223;50.862;4.360;2024-02-26T12:54:12;6.00;99.90
20125;DHT22;10223;50.862;4.360;2024-02-26T12:56:39;6.00;99.90
20125;DHT22;10223;50.862;4.360;2024-02-26T12:59:07;6.00;99.90
20125;DHT22;10223;50.862;4.360;2024-02-26T13:01:35;6.00;99.90
20125;DHT22;10223;50.862;4.360;2024-02-26T13:04:02;5.90;99.90
20125;DHT22;10223;50.862;4.360;2024-02-26T13:06:32;5.90;99.90
20125;DHT22;10223;50.862;4.360;2024-02-26T13:08:59;5.90;99.90
20125;DHT22;10223;50.862;4.360;2024-02-26T13:11:29;5.80;99.90
20125;DHT22;10223;50.862;4.360;2024-02-26T13:13:56;5.90;99.90
20125;DHT22;10223;50.862;4.360;2024-02-26T13:16:24;5.90;99.90
20125;DHT22;10223;50.862;4.360;2024-02-26T13:18:51;5.90;99.90
20125;DHT22;10223;50.862;4.360;2024-02-26T13:21:19;5.80;99.90
20125;DHT22;10223;50.862;4.360;2024-02-26T13:23:49;5.80;99.90
20125;DHT22;10223;50.862;4.360;2024-02-26T13:26:16;5.70;99.90
20125;DHT22;10223;50.862;4.360;2024-02-26T13:28:47;5.70;99.90
20125;DHT22;10223;50.862;4.360;2024-02-26T13:31:14;5.70;99.90
20125;DHT22;10223;50.862;4.360;2024-02-26T13:33:41;5.80;99.90
20125;DHT22;10223;50.862;4.360;2024-02-26T13:36:08;5.70;99.90
20125;DHT22;10223;50.862;4.360;2024-02-26T13:38:37;5.70;99.90
20125;DHT22;10223;50.862;4.360;2024-02-26T13:41:04;5.70;99.90
20125;DHT22;10223;50.862;4.360;2024-02-26T13:43:31;5.60;99.90
20125;DHT22;10223;50.862;4.360;2024-02-26T13:45:58;5.70;99.90
20125;DHT22;10223;50.862;4.360;2024-02-26T13:48:25;5.70;99.90
20125;DHT22;10223;50.862;4.360;2024-02-26T13:50:52;5.70;99.90
20125;DHT22;10223;50.862;4.360;2024-02-26T13:53:19;5.60;99.90
20125;DHT22;10223;50.862;4.360;2024-02-26T13:55:49;5.70;99.90
20125;DHT22;10223;50.862;4.360;2024-02-26T13:58:16;5.60;99.90
20125;DHT22;10223;50.862;4.360;2024-02-26T14:00:48;5.80;99.90
20125;DHT22;10223;50.862;4.360;2024-02-26T14:03:16;5.70;99.90
20125;DHT22;10223;50.862;4.360;2024-02-26T14:05:44;5.80;99.90
20125;DHT22;10223;50.862;4.360;2024-02-26T14:08:11;5.80;99.90
20125;DHT22;10223;50.862;4.360;2024-02-26T14:10:38;5.80;99.90
20125;DHT22;10223;50.862;4.360;2024-02-26T14:13:05;5.80;99.90
20125;DHT22;10223;50.862;4.360;2024-02-26T14:15:33;5.90;99.90
20125;DHT22;10223;50.862;4.360;2024-02-26T14:18:01;5.80;99.90
20125;DHT22;10223;50.862;4.360;2024-02-26T14:20:31;5.80;99.90
20125;DHT22;10223;50.862;4.360;2024-02-26T14:22:57;5.80;99.90
20125;DHT22;10223;50.862;4.360;2024-02-26T14:25:25;5.80;99.90
20125;DHT22;10223;50.862;4.360;2024-02-26T14:27:52;6.00;99.90
20125;DHT22;10223;50.862;4.360;2024-02-26T14:30:20;5.90;99.90
20125;DHT22;10223;50.862;4.360;2024-02-26T14:32:47;5.80;99.90
20125;DHT22;10223;50.862;4.360;2024-02-26T14:35:17;5.80;99.90
20125;DHT22;10223;50.862;4.360;2024-02-26T14:37:45;5.80;99.90
20125;DHT22;10223;50.862;4.360;2024-02-26T14:40:13;5.80;99.90
20125;DHT22;10223;50.862;4.360;2024-02-26T14:42:42;5.90;99.90
20125;DHT22;10223;50.862;4.360;2024-02-26T14:45:11;5.80;99.90
20125;DHT22;10223;50.862;4.360;2024-02-26T14:47:38;5.90;99.90
20125;DHT22;10223;50.862;4.360;2024-02-26T14:50:12;5.90;99.90
20125;DHT22;10223;50.862;4.360;2024-02-26T14:52:39;5.90;99.90
20125;DHT22;10223;50.862;4.360;2024-02-26T14:55:08;5.90;99.90
20125;DHT22;10223;50.862;4.360;2024-02-26T14:57:35;6.00;99.90
20125;DHT22;10223;50.862;4.360;2024-02-26T15:00:02;6.00;99.90
20125;DHT22;10223;50.862;4.360;2024-02-26T15:02:31;6.00;99.90
20125;DHT22;10223;50.862;4.360;2024-02-26T15:04:58;5.90;99.90
20125;DHT22;10223;50.862;4.360;2024-02-26T15:07:25;6.00;99.90
20125;DHT22;10223;50.862;4.360;2024-02-26T15:09:52;6.00;99.90
20125;DHT22;10223;50.862;4.360;2024-02-26T15:12:23;5.90;99.90
20125;DHT22;10223;50.862;4.360;2024-02-26T15:14:50;6.00;99.90
20125;DHT22;10223;50.862;4.360;2024-02-26T15:17:17;5.90;99.90
20125;DHT22;10223;50.862;4.360;2024-02-26T15:19:45;5.90;99.90
20125;DHT22;10223;50.862;4.360;2024-02-26T15:22:12;5.90;99.90
20125;DHT22;10223;50.862;4.360;2024-02-26T15:24:39;5.90;99.90
20125;DHT22;10223;50.862;4.360;2024-02-26T15:27:06;5.90;99.90
20125;DHT22;10223;50.862;4.360;2024-02-26T15:29:35;5.90;99.90
20125;DHT22;10223;50.862;4.360;2024-02-26T15:32:02;5.90;99.90
20125;DHT22;10223;50.862;4.360;2024-02-26T15:34:29;5.90;99.90
20125;DHT22;10223;50.862;4.360;2024-02-26T15:36:56;5.90;99.90
20125;DHT22;10223;50.862;4.360;2024-02-26T15:39:23;5.90;99.90
20125;DHT22;10223;50.862;4.360;2024-02-26T15:41:52;5.90;99.90
20125;DHT22;10223;50.862;4.360;2024-02-26T15:44:19;5.90;99.90
20125;DHT22;10223;50.862;4.360;2024-02-26T15:46:47;5.90;99.90
20125;DHT22;10223;50.862;4.360;2024-02-26T15:49:14;5.80;99.90